Date,TemperatureHighF,TemperatureAvgF,TemperatureLowF,DewpointHighF,DewpointAvgF,DewpointLowF,HumidityHigh,HumidityAvg,HumidityLow,PressureMaxIn,PressureMinIn,WindSpeedMaxMPH,WindSpeedAvgMPH,GustSpeedMaxMPH,PrecipitationSumIn
2013-1-1,76.4,71.2,68.1,70.1,67.7,65.3,96,89,79,30.09,29.97,12,5,19,0.30
2013-1-2,74.5,70.7,68.3,69.6,67.6,66.0,95,90,81,30.04,29.94,9,5,14,0.27
2013-1-3,73.9,69.5,67.1,69.7,67.1,65.1,96,92,85,30.06,29.95,12,6,15,0.34
2013-1-4,72.1,69.5,67.6,68.4,66.4,64.6,94,90,82,30.09,29.97,13,9,27,0.54
2013-1-5,74.1,70.6,67.3,68.3,66.2,63.9,93,86,78,30.11,30.01,12,9,25,0.44
2013-1-7,77.3,73.4,70.2,67.8,65.0,62.4,87,76,61,30.06,29.92,12,7,21,0.03
2013-1-8,76.8,71.6,68.1,67.6,65.8,63.6,93,82,70,29.98,29.86,10,5,19,0.12
2013-1-9,76.0,71.7,68.7,69.5,67.1,65.1,93,86,76,29.98,29.87,9,6,16,0.21
2013-1-10,76.6,72.5,69.6,67.3,65.4,63.7,84,79,69,29.97,29.88,9,5,18,0.00
2013-1-11,76.2,71.7,69.1,68.3,66.0,64.3,91,82,71,29.94,29.85,7,4,13,0.02
2013-1-12,78.2,72.3,67.8,70.3,67.3,63.9,94,85,73,29.95,29.86,3,1,6,0.07
2013-1-13,80.9,73.0,65.8,70.1,65.9,60.1,89,79,62,29.95,29.88,4,1,7,0.00
2013-1-14,82.1,72.6,66.7,72.0,67.6,63.4,95,85,64,29.95,29.82,7,2,14,0.30
2013-1-15,74.8,71.4,68.0,67.4,66.0,64.2,95,83,75,29.93,29.83,6,2,9,0.00
2013-1-16,75.8,70.5,64.9,65.5,61.8,53.4,89,75,47,29.93,29.81,7,2,11,0.00
2013-1-17,74.4,69.7,65.5,66.0,63.2,61.4,90,80,69,29.90,29.80,5,2,7,0.00
2013-1-18,74.2,71.2,66.6,64.7,62.3,60.1,86,74,62,29.93,29.81,9,4,14,0.00
2013-1-19,74.2,71.3,68.8,61.6,57.9,54.9,71,63,52,30.02,29.89,10,6,15,0.00
2013-1-20,73.7,70.7,69.1,62.0,59.1,56.2,75,67,59,30.05,29.96,13,7,17,0.00
2013-1-21,75.3,71.3,68.8,63.5,60.8,57.8,80,70,60,30.10,30.01,9,6,17,0.00
2013-1-22,75.7,71.9,69.5,65.8,62.8,59.3,79,73,65,30.11,30.01,8,5,15,0.00
2013-1-23,74.4,70.6,66.3,67.5,64.5,58.9,91,81,68,30.05,29.96,9,4,14,0.04
2013-1-24,77.9,71.3,66.4,66.8,64.3,60.6,90,79,65,30.05,29.97,9,4,16,0.02
2013-1-25,80.0,71.4,63.9,67.7,63.7,59.5,89,77,62,30.05,29.94,6,2,10,0.00
2013-1-26,81.7,72.6,66.4,66.5,63.7,60.7,91,74,52,30.01,29.90,4,1,6,0.00
2013-1-27,83.0,74.4,65.9,68.0,64.0,59.0,83,70,54,29.96,29.84,6,2,11,0.00
2013-1-28,74.8,70.6,67.4,69.5,66.8,63.0,94,88,73,29.98,29.85,5,1,9,0.12
2013-1-29,73.9,69.4,66.7,69.3,65.9,63.3,94,89,82,30.00,29.90,3,0,5,0.28
2013-1-30,76.0,71.5,66.5,69.3,66.2,62.1,90,83,77,30.05,29.97,5,2,7,0.00
2013-1-31,73.6,71.6,69.7,70.1,67.7,65.7,93,88,83,30.09,30.00,9,5,17,0.10
2013-2-1,75.7,72.2,68.9,66.1,62.7,59.5,84,72,61,30.10,30.02,10,7,19,0.00
2013-2-2,76.6,72.2,68.2,64.1,60.9,57.7,78,68,58,30.12,30.01,11,6,20,0.00
2013-2-3,74.8,70.9,67.2,61.4,59.0,56.3,75,66,58,30.16,30.06,11,6,20,0.00
2013-2-4,75.4,70.3,66.3,66.1,62.4,57.0,92,77,63,30.10,30.02,11,8,20,0.18
2013-2-5,74.7,70.9,66.0,65.5,62.4,58.7,94,75,64,30.08,29.99,9,5,16,0.20
2013-2-6,74.5,70.2,66.9,68.9,66.4,63.6,93,88,81,30.07,29.98,8,5,14,0.38
2013-2-7,77.8,72.7,69.2,69.0,66.6,63.9,88,81,73,30.10,29.99,9,5,16,0.01
2013-2-8,77.5,72.6,69.2,67.5,65.5,63.9,86,79,67,30.11,30.00,7,4,15,0.00
2013-2-9,76.2,71.6,68.2,67.1,65.0,63.2,88,80,70,30.12,30.02,8,4,15,0.00
2013-2-10,76.2,72.3,67.4,67.6,65.3,63.2,92,79,70,30.17,30.05,9,6,15,0.12
2013-2-11,74.3,70.2,67.8,67.3,64.7,60.7,92,83,74,30.19,30.09,10,6,15,0.08
2013-2-12,74.3,70.2,66.3,64.5,61.2,56.2,86,73,63,30.17,30.07,9,6,14,0.00
2013-2-13,72.3,68.7,65.7,61.3,57.5,53.8,85,68,59,30.12,29.99,7,4,15,0.00
2013-2-14,74.8,69.4,64.7,64.1,61.2,58.2,87,75,66,30.09,29.98,7,4,13,0.01
2013-2-15,76.4,71.6,67.2,68.2,63.2,57.6,86,75,63,30.08,29.97,11,6,17,0.02
2013-2-16,75.6,71.2,66.4,65.9,62.9,60.6,92,75,64,30.12,30.01,11,8,17,0.11
2013-2-17,73.3,69.6,65.9,65.0,62.5,60.4,92,78,68,30.15,30.03,12,8,20,0.28
2013-2-18,74.8,70.6,64.6,63.9,61.9,60.0,91,74,61,30.14,30.02,15,9,23,0.30
2013-2-19,76.0,70.4,65.7,64.6,61.3,56.1,91,74,53,30.12,30.02,12,8,18,0.29
2013-2-20,75.2,71.0,67.6,65.8,63.7,61.5,88,78,67,30.12,30.03,12,8,19,0.09
2013-2-21,73.0,68.7,65.8,68.3,65.2,62.7,95,89,78,30.12,30.04,12,7,17,1.52
2013-2-22,74.6,69.5,67.0,67.6,65.7,63.5,95,88,79,30.10,30.00,12,8,24,0.82
2013-2-23,75.9,70.7,67.3,66.7,64.3,60.8,91,81,70,30.10,30.00,10,7,19,0.05
2013-2-24,74.7,70.5,67.7,65.6,63.0,61.1,91,77,69,30.10,29.99,10,7,18,0.09
2013-2-25,75.8,71.2,67.8,66.6,63.7,60.8,89,78,68,30.13,30.02,10,7,19,0.06
2013-2-26,75.7,70.7,66.9,65.4,63.4,61.3,89,78,67,30.15,30.05,10,7,18,0.09
2013-2-27,76.0,71.7,69.0,64.2,61.2,58.1,78,70,56,30.17,30.07,11,7,17,0.00
2013-2-28,76.4,72.0,68.9,62.9,59.9,56.1,77,66,50,30.18,30.07,10,7,18,0.00
2013-3-1,75.0,71.2,66.7,62.9,59.8,56.7,84,67,57,30.16,30.06,11,8,19,0.02
2013-3-2,76.7,71.7,68.7,61.8,58.7,53.3,76,64,47,30.17,30.04,10,7,20,0.00
2013-3-3,76.4,71.9,69.5,61.7,57.8,53.9,74,62,49,30.16,30.07,9,7,16,0.00
2013-3-4,76.5,71.7,68.7,62.0,59.3,55.1,75,65,51,30.16,30.08,9,6,15,0.00
2013-3-5,77.4,71.5,68.6,63.9,60.1,54.7,82,68,52,30.14,30.04,8,5,13,0.02
2013-3-6,76.2,70.8,65.7,65.4,63.0,61.7,91,77,64,30.12,30.02,9,5,14,0.03
2013-3-7,77.4,71.5,67.2,67.8,64.7,62.2,87,79,66,30.08,29.96,10,3,15,0.00
2013-3-8,81.2,71.9,63.9,67.6,63.2,59.3,90,75,55,30.01,29.87,7,2,11,0.00
2013-3-9,80.7,71.9,64.7,69.3,64.6,60.1,92,78,64,29.94,29.84,8,2,17,0.32
2013-3-10,79.7,70.7,67.2,70.2,65.0,61.0,91,82,66,30.00,29.86,11,4,16,0.09
2013-3-11,76.0,70.7,65.1,67.1,64.7,61.0,91,81,74,30.04,29.94,6,2,11,0.00
2013-3-12,74.9,70.8,67.7,67.0,64.7,61.8,89,81,71,30.07,29.95,7,3,11,0.00
2013-3-13,74.8,70.1,65.8,63.8,61.6,60.1,83,75,65,30.07,29.97,8,4,13,0.00
2013-3-14,77.4,71.4,67.2,67.7,63.3,59.3,84,76,66,30.06,29.94,5,2,7,0.00
2013-3-15,77.8,72.2,68.2,65.8,63.4,60.7,88,74,63,29.97,29.87,10,3,18,0.00
2013-3-16,74.8,70.0,65.1,63.8,60.3,57.1,91,72,57,29.99,29.89,8,3,16,0.02
2013-3-17,73.6,69.0,64.7,62.9,58.0,55.3,78,68,59,30.02,29.92,8,3,11,0.00
2013-3-18,74.2,68.8,63.6,61.4,59.1,55.8,80,72,61,30.02,29.92,9,3,13,0.00
2013-3-19,78.3,71.5,63.5,66.7,62.5,55.5,81,74,60,30.00,29.91,5,2,10,0.00
2013-3-20,80.7,72.9,65.0,67.9,63.7,58.9,84,73,58,30.04,29.94,4,1,6,0.00
2013-3-21,86.4,75.6,68.1,70.9,66.4,62.0,83,74,48,30.04,29.92,6,1,7,0.00
2013-3-22,78.0,73.8,69.2,71.0,67.6,62.8,88,81,70,30.02,29.90,6,1,10,0.00
2013-3-23,72.0,69.2,67.4,68.0,66.1,62.8,95,90,78,30.02,29.91,10,3,14,0.40
2013-3-24,75.2,71.7,69.1,70.3,67.8,65.2,92,87,79,30.01,29.91,8,3,14,0.02
2013-3-25,80.3,73.2,66.3,69.9,66.2,62.6,91,79,64,30.00,29.91,7,3,12,0.00
2013-3-26,79.6,73.2,68.4,68.6,65.9,62.8,86,78,65,30.03,29.92,7,3,12,0.00
2013-3-27,79.5,71.9,65.8,68.5,64.5,60.5,90,78,66,30.01,29.91,14,4,17,0.02
2013-3-28,77.7,71.9,68.7,68.0,65.7,63.7,90,81,69,30.03,29.93,9,5,18,0.11
2013-3-29,73.0,69.2,66.9,66.8,65.3,64.2,93,87,77,30.04,29.97,8,4,15,0.15
2013-3-30,77.1,70.6,65.8,69.3,65.0,62.5,92,83,71,30.04,29.95,9,2,12,0.00
2013-3-31,73.8,70.2,67.5,65.0,58.0,55.2,88,66,55,30.04,29.93,11,7,21,0.00
2013-4-1,77.5,69.6,62.2,60.8,57.6,54.6,77,66,50,30.00,29.90,10,3,13,0.00
2013-4-2,73.5,69.4,65.6,60.5,58.0,55.3,80,67,56,30.07,29.94,9,4,13,0.00
2013-4-3,77.5,70.5,65.0,63.2,60.4,57.8,81,71,57,30.07,29.97,8,4,14,0.00
2013-4-4,80.5,72.5,64.0,65.9,63.0,57.8,83,73,55,30.07,29.96,6,2,12,0.00
2013-4-5,79.7,73.7,70.1,69.3,65.9,62.6,93,77,61,30.10,29.99,9,5,15,0.28
2013-4-6,81.6,75.4,70.5,71.1,68.6,65.9,92,80,69,30.12,30.01,9,4,16,0.01
2013-4-7,80.1,74.4,70.4,70.9,67.3,65.0,85,79,71,30.16,30.06,9,4,17,0.00
2013-4-8,79.0,74.0,70.7,69.6,66.8,64.9,85,78,69,30.08,29.94,8,4,16,0.00
2013-4-9,79.9,74.5,69.8,68.7,66.3,63.9,87,76,65,30.05,29.94,11,5,16,0.00
2013-4-10,81.1,75.2,70.6,68.9,66.8,63.6,85,75,60,30.04,29.94,12,6,20,0.00
2013-4-11,81.5,74.9,68.7,71.1,66.9,63.1,87,77,66,30.02,29.91,9,4,13,0.00
2013-4-12,83.4,76.1,68.5,69.7,66.4,63.9,86,72,59,29.96,29.88,7,2,12,0.00
2013-4-13,82.8,75.3,70.0,71.3,66.8,63.0,86,75,61,29.94,29.84,6,1,12,0.00
2013-4-14,85.2,76.1,70.0,71.6,67.1,62.8,88,74,59,29.95,29.84,6,1,11,0.00
2013-4-15,85.7,75.2,67.7,72.0,67.6,62.7,88,78,62,30.03,29.90,6,1,12,0.00
2013-4-16,85.2,75.7,68.5,70.7,67.7,63.1,86,77,60,30.09,29.97,6,2,11,0.00
2013-4-17,81.7,75.4,72.0,69.9,67.3,64.8,87,76,65,30.13,30.02,9,5,20,0.00
2013-4-18,79.1,74.4,71.4,70.3,66.6,65.0,86,77,68,30.13,30.04,10,6,18,0.02
2013-4-19,78.0,73.3,69.6,70.1,66.8,63.1,92,80,69,30.09,29.98,11,6,17,0.08
2013-4-20,82.4,75.6,69.4,69.6,65.9,62.2,82,72,61,30.06,29.97,6,2,10,0.00
2013-4-21,82.8,74.8,68.1,71.1,67.0,63.4,87,77,64,30.02,29.95,7,1,10,0.00
2013-4-22,87.5,77.1,69.2,72.6,67.5,63.1,85,73,53,30.02,29.93,6,1,10,0.00
2013-4-23,85.3,77.5,68.3,72.4,68.6,63.3,86,74,60,30.04,29.95,5,1,11,0.00
2013-4-24,82.3,75.4,72.0,71.6,68.7,66.2,90,80,61,30.08,29.97,9,3,14,0.01
2013-4-25,82.3,75.8,71.6,69.4,66.1,62.5,80,72,56,30.05,29.96,9,5,17,0.00
2013-4-26,81.0,74.9,70.8,68.5,64.8,61.9,85,71,53,30.03,29.95,11,6,17,0.00
2013-4-27,83.6,76.1,68.1,68.1,64.1,58.4,78,67,50,30.03,29.92,7,3,10,0.00
2013-4-28,86.2,76.2,69.0,71.2,66.7,61.9,84,73,54,30.01,29.91,6,1,11,0.00
2013-4-29,87.0,76.2,69.5,71.9,67.9,63.8,85,76,56,29.98,29.88,6,1,11,0.00
2013-4-30,84.5,76.7,70.9,71.4,67.3,63.8,83,73,59,30.01,29.92,6,2,8,0.00
2013-5-1,83.1,76.3,71.0,69.0,66.8,64.2,84,73,58,30.06,29.97,9,4,17,0.00
2013-5-2,83.4,75.8,71.3,68.7,65.8,61.9,85,72,55,30.07,29.99,10,5,20,0.01
2013-5-3,84.9,76.3,68.4,66.6,64.6,61.4,82,68,47,30.05,29.94,7,3,12,0.00
2013-5-4,83.9,75.4,67.3,69.8,65.2,59.4,78,71,60,29.99,29.88,6,1,10,0.00
2013-5-5,85.4,74.4,69.3,70.5,66.6,62.9,91,77,57,29.93,29.83,6,2,15,0.04
2013-5-6,77.9,72.6,69.9,70.8,67.7,62.6,95,85,74,29.95,29.84,6,2,10,0.22
2013-5-7,79.7,74.6,69.5,68.7,66.1,62.4,84,75,67,29.97,29.88,5,2,10,0.00
2013-5-8,81.5,75.0,69.3,70.8,67.6,64.3,88,78,68,30.00,29.90,5,2,7,0.00
2013-5-9,81.4,76.0,69.8,72.1,69.2,66.0,91,80,71,30.06,29.94,7,2,11,0.00
2013-5-10,81.7,76.3,72.3,72.1,70.2,68.1,90,82,71,30.10,30.00,10,4,12,0.03
2013-5-11,75.2,71.5,69.4,72.1,68.8,66.8,95,91,81,30.08,30.01,9,5,13,0.32
2013-5-12,73.0,70.9,69.4,71.1,69.0,67.5,96,94,88,30.09,29.99,10,6,16,1.00
2013-5-13,77.5,73.4,71.0,72.2,70.0,67.9,95,89,80,30.06,29.98,8,5,15,0.15
2013-5-14,81.4,76.3,71.2,71.8,69.5,68.1,92,80,68,30.09,30.00,10,6,21,0.02
2013-5-15,80.8,76.1,73.0,70.9,69.0,67.5,87,79,67,30.12,30.04,9,6,19,0.00
2013-5-16,80.5,75.3,71.1,71.0,67.7,65.6,90,77,69,30.10,30.02,10,6,15,0.21
2013-5-17,81.5,75.8,71.3,69.9,67.0,64.6,87,75,61,30.06,29.96,9,6,15,0.02
2013-5-18,82.4,76.2,71.2,70.4,67.3,64.3,85,75,60,30.01,29.93,7,3,11,0.01
2013-5-19,80.0,74.7,68.2,70.9,67.6,63.3,94,79,69,29.98,29.88,7,3,11,0.72
2013-5-20,78.4,72.6,67.3,68.9,66.2,62.9,94,81,71,29.97,29.89,7,2,12,0.00
2013-5-21,83.0,74.9,68.5,70.5,67.1,63.1,88,77,64,29.99,29.90,4,1,6,0.00
2013-5-22,82.0,17.2,71.0,72.3,-63.0,-99.9,84,16,69,30.03,29.91,5,-782,8,0.00
2013-5-23,83.8,21.7,76.9,72.6,-54.2,-99.9,80,19,66,30.04,29.95,7,-731,15,0.00
2013-5-24,83.0,40.5,75.3,72.2,-13.7,-99.9,87,36,63,30.05,29.97,9,-487,19,0.01
2013-5-25,80.8,41.2,72.0,71.9,-9.0,-99.9,88,42,68,30.06,29.98,10,-460,15,0.03
2013-5-26,81.4,40.3,74.5,70.6,-14.0,-99.9,80,36,65,30.07,29.98,10,-487,23,0.00
2013-5-27,82.2,40.0,72.5,70.1,-13.9,-99.9,85,37,63,30.08,30.00,10,-484,19,0.00
2013-5-28,83.0,41.2,73.5,71.8,-12.3,-99.9,82,37,66,30.08,30.00,8,-482,14,0.00
2013-5-29,84.5,41.2,75.1,72.4,-14.9,-99.9,79,34,63,30.06,29.98,8,-491,14,0.00
2013-5-30,83.0,39.6,75.8,71.8,-15.4,-99.9,84,36,65,30.03,29.93,8,-500,13,0.00
2013-5-31,80.3,40.0,72.9,72.6,-12.0,-99.9,90,41,72,30.03,29.92,9,-482,15,0.02
2013-6-1,82.6,40.7,75.5,73.0,-12.3,-99.9,82,39,69,30.07,29.97,9,-484,15,0.00
2013-6-2,81.4,38.0,73.1,73.0,-16.7,-99.9,93,39,67,30.07,30.00,12,-508,22,0.05
2013-6-3,82.1,37.7,73.2,70.7,-19.2,-99.9,84,34,65,30.08,29.99,10,-518,18,0.00
2013-6-4,83.2,39.9,74.8,71.5,-14.6,-99.9,80,36,52,30.04,29.96,11,-490,17,0.00
2013-6-5,80.8,39.4,73.7,71.0,-14.7,-99.9,83,37,67,30.03,29.96,12,-490,19,0.00
2013-6-6,81.4,41.2,72.4,69.8,-12.1,-99.9,82,36,63,30.04,29.93,9,-472,18,0.00
2013-6-7,81.3,39.0,72.2,68.9,-15.7,-99.9,78,35,59,30.03,29.94,10,-490,14,0.00
2013-6-8,81.5,40.6,72.8,70.8,-13.1,-99.9,81,36,65,30.04,29.96,9,-480,18,0.00
2013-6-9,81.5,40.0,71.0,70.8,-13.4,-99.9,90,38,64,30.06,29.98,7,-485,15,0.08
2013-6-10,81.5,40.7,74.1,71.4,-11.6,-99.9,84,39,67,30.04,29.98,8,-475,16,0.01
2013-6-11,84.1,39.4,74.6,70.2,-17.3,-99.9,81,33,57,30.02,29.94,11,-506,14,0.00
2013-6-12,81.5,40.9,74.7,71.6,-12.7,-99.9,78,37,65,30.07,29.97,10,-480,18,0.00
2013-6-13,80.9,39.9,74.4,71.5,-13.3,-99.9,86,39,69,30.08,30.01,10,-486,19,0.00
2013-6-14,80.5,39.8,72.8,71.4,-13.5,-99.9,88,38,69,30.07,29.97,10,-486,17,0.01
2013-6-15,81.3,40.3,71.1,70.5,-13.0,-99.9,89,38,67,30.01,29.92,8,-481,15,0.01
2013-6-16,82.5,40.2,73.5,70.1,-14.8,-99.9,83,35,59,30.01,29.92,9,-490,16,0.00
2013-6-17,80.9,39.5,73.1,70.8,-14.2,-99.9,88,38,69,30.07,29.95,9,-490,14,0.02
2013-6-18,74.3,0.9,74.1,68.8,-97.8,-99.9,83,1,82,30.05,29.98,6,-986,6,0.00
2013-6-19,83.0,41.3,75.9,69.4,-14.0,-99.9,76,33,59,30.05,29.98,11,-484,15,0.00
2013-6-20,83.5,42.8,72.1,71.0,-9.2,-99.9,89,38,59,30.04,29.96,8,-461,14,0.00
2013-6-21,81.0,40.7,72.7,71.6,-10.1,-99.9,91,42,69,30.04,29.96,8,-467,18,0.01
2013-6-22,81.3,40.3,73.7,71.6,-12.6,-99.9,83,38,66,30.08,29.97,10,-480,18,0.00
2013-6-23,81.6,41.4,73.0,71.0,-11.0,-99.9,82,39,68,30.10,30.02,8,-472,14,0.00
2013-6-24,82.7,40.2,74.3,69.9,-14.9,-99.9,76,35,60,30.09,30.02,8,-490,13,0.00
2013-6-25,77.3,36.0,71.3,72.1,-17.4,-99.9,94,43,81,30.06,29.99,9,-512,17,0.10
2013-6-26,81.0,37.8,72.4,71.6,-17.7,-99.9,86,37,70,30.05,29.97,9,-512,15,0.00
2013-6-27,81.8,40.9,72.7,70.6,-13.3,-99.9,83,35,63,30.01,29.94,7,-481,14,0.00
2013-6-28,81.3,39.0,73.4,72.6,-14.9,-99.9,91,38,66,29.99,29.92,8,-494,15,0.05
2013-6-29,81.5,38.0,71.9,71.3,-17.4,-99.9,84,37,68,30.00,29.91,8,-509,19,0.00
2013-6-30,83.3,41.8,74.1,70.5,-12.4,-99.9,84,35,59,30.02,29.94,7,-478,14,0.00
2013-7-1,82.9,52.0,73.3,72.2,13.3,-99.9,88,52,62,30.00,29.94,8,-322,14,0.04
2013-7-2,81.4,75.8,71.2,71.1,68.0,65.4,84,77,65,29.98,29.90,9,4,15,0.00
2013-7-3,83.4,76.7,72.8,72.1,68.0,65.4,88,75,58,29.98,29.90,7,3,14,0.02
2013-7-4,83.1,76.9,70.9,71.8,68.3,65.6,89,75,61,30.02,29.93,7,3,15,0.01
2013-7-5,80.8,76.2,70.8,71.2,68.4,65.0,83,77,70,30.01,29.94,9,4,15,0.00
2013-7-6,81.8,76.2,71.0,71.1,67.9,64.0,83,76,65,30.00,29.93,8,3,16,0.00
2013-7-7,83.7,77.2,71.0,71.7,68.5,64.1,84,75,64,29.98,29.88,7,3,15,0.00
2013-7-8,84.8,77.7,71.7,72.3,69.8,66.3,90,77,62,30.02,29.89,9,4,17,0.02
2013-7-9,84.6,78.9,75.4,72.2,70.3,67.6,83,75,64,30.11,29.97,10,6,19,0.00
2013-7-10,83.2,77.0,72.6,72.4,69.3,66.4,88,77,64,30.12,30.06,9,6,18,0.03
2013-7-11,82.3,75.8,70.2,71.1,68.4,65.5,91,78,65,30.08,29.99,10,6,27,0.08
2013-7-12,82.4,76.6,71.8,71.2,68.4,66.4,84,76,64,30.04,29.94,10,5,16,0.00
2013-7-13,83.9,77.3,71.2,69.3,67.4,64.8,84,72,54,30.00,29.91,9,5,17,0.00
2013-7-14,84.3,77.5,71.6,69.0,66.4,64.1,80,69,52,29.98,29.89,9,4,16,0.00
2013-7-15,84.9,77.3,71.1,70.6,67.4,65.7,85,72,57,29.99,29.91,9,5,18,0.01
2013-7-16,84.0,77.8,73.2,70.1,67.6,64.3,81,71,56,29.98,29.89,9,6,17,0.00
2013-7-17,83.6,77.7,72.8,70.2,66.9,61.6,85,70,57,29.99,29.91,10,6,20,0.02
2013-7-18,83.6,77.3,73.1,72.8,69.1,67.1,84,76,63,30.02,29.93,7,4,13,0.02
2013-7-19,84.9,78.4,73.1,72.4,69.6,66.9,84,75,61,30.05,29.96,8,4,14,0.00
2013-7-20,83.9,77.7,73.2,70.9,68.5,66.7,84,74,62,30.04,29.96,8,4,13,0.00
2013-7-21,84.1,77.4,73.3,70.7,68.2,65.5,90,74,55,30.00,29.92,8,4,18,0.01
2013-7-22,84.5,77.1,72.9,76.0,72.4,69.5,94,86,73,29.98,29.88,6,2,10,0.20
2013-7-23,85.2,79.0,74.7,74.0,71.5,69.8,90,78,68,30.00,29.92,9,3,17,0.01
2013-7-24,84.0,77.5,73.7,72.4,69.3,67.8,89,76,64,29.98,29.89,9,4,19,0.00
2013-7-25,84.5,77.6,72.8,70.1,68.0,66.6,86,73,58,29.97,29.90,7,4,17,0.00
2013-7-26,83.8,76.6,70.6,72.2,69.2,67.1,91,78,63,30.03,29.91,7,4,13,0.08
2013-7-27,83.6,77.8,73.2,71.2,68.2,63.9,85,73,58,30.02,29.93,9,4,15,0.00
2013-7-28,83.2,76.8,71.3,73.0,69.9,65.4,94,80,63,29.99,29.91,8,3,17,0.09
2013-7-29,81.1,76.8,74.4,76.0,73.3,67.7,95,89,72,29.93,29.74,11,4,14,0.70
2013-7-30,85.1,79.2,73.8,75.9,72.2,68.2,86,79,70,30.07,29.93,12,4,18,0.00
2013-7-31,83.8,79.0,76.0,72.1,69.8,67.6,85,74,62,30.08,29.99,13,7,25,0.00
2013-8-1,83.8,78.9,73.0,70.5,69.2,67.4,87,73,62,30.05,29.98,9,6,15,0.01
2013-8-2,83.4,77.8,73.3,71.8,69.3,67.3,85,75,64,30.03,29.95,9,4,13,0.01
2013-8-3,83.2,77.6,73.0,71.1,69.0,67.2,88,75,63,30.02,29.94,8,4,17,0.06
2013-8-4,84.3,77.2,71.3,72.3,69.4,67.0,89,78,62,30.01,29.92,8,4,14,0.04
2013-8-5,84.3,77.0,72.2,73.3,70.8,68.4,92,81,66,30.00,29.91,9,4,17,0.18
2013-8-6,83.2,77.8,74.0,71.3,69.0,67.6,83,75,62,30.01,29.93,7,4,15,0.00
2013-8-7,84.2,77.5,73.2,70.1,68.2,66.7,83,74,59,30.04,29.96,7,4,13,0.00
2013-8-8,83.6,77.5,72.1,71.5,68.7,67.0,84,75,63,30.05,29.96,9,4,12,0.00
2013-8-9,84.5,76.0,72.0,74.9,70.3,67.0,95,83,63,30.03,29.93,11,5,19,0.68
2013-8-10,81.9,76.4,72.3,74.1,72.4,70.9,96,88,75,30.00,29.92,11,6,22,1.12
2013-8-11,83.6,78.0,73.9,74.7,72.0,69.7,92,82,71,30.01,29.95,9,6,18,0.04
2013-8-12,82.1,77.9,74.9,71.4,69.6,67.4,83,76,67,30.05,29.97,9,6,15,0.00
2013-8-13,83.8,77.8,74.4,72.0,69.6,67.2,85,76,60,30.02,29.94,8,5,15,0.00
2013-8-14,83.1,77.8,73.9,70.6,68.9,67.2,82,74,61,30.01,29.91,10,6,18,0.00
2013-8-15,83.5,77.6,73.6,70.7,68.9,67.3,83,75,59,30.01,29.94,10,5,15,0.00
2013-8-16,81.6,76.8,73.4,72.5,69.9,67.1,86,79,71,30.02,29.94,9,5,19,0.01
2013-8-17,82.3,78.0,73.8,70.4,68.2,64.7,80,72,62,30.01,29.92,11,6,17,0.00
2013-8-18,84.2,78.1,74.7,72.0,68.8,66.7,81,73,63,30.01,29.92,8,4,14,0.00
2013-8-19,82.3,76.8,72.0,71.0,67.8,65.2,81,74,62,30.00,29.92,7,3,11,0.00
2013-8-20,86.4,78.0,71.7,72.5,69.7,66.3,91,76,61,29.97,29.88,6,2,11,0.00
2013-8-21,85.1,78.5,71.7,73.1,70.0,65.6,84,76,64,29.96,29.87,6,2,13,0.00
2013-8-22,86.2,79.9,75.2,72.8,70.8,68.9,85,74,58,29.97,29.88,7,3,12,0.00
2013-8-23,84.9,78.2,71.7,72.4,69.9,67.6,92,76,60,29.98,29.89,8,4,12,0.01
2013-8-24,84.2,78.4,74.2,72.3,69.7,67.9,84,75,61,30.02,29.92,8,4,15,0.00
2013-8-25,83.8,78.6,75.3,72.8,70.0,68.4,87,75,62,30.05,29.97,9,5,16,0.01
2013-8-26,84.4,78.7,76.0,71.8,69.8,68.3,82,74,60,30.07,30.00,9,6,17,0.00
2013-8-27,83.7,78.1,74.3,70.9,68.7,66.3,86,73,59,30.07,29.98,7,5,15,0.01
2013-8-28,81.6,77.5,72.9,72.0,70.1,67.3,88,78,65,30.00,29.89,8,4,12,0.02
2013-8-29,83.8,77.7,71.3,72.3,70.0,67.1,89,78,66,29.94,29.86,7,3,12,0.02
2013-8-30,84.3,77.8,71.5,73.6,69.9,66.8,90,77,65,30.01,29.91,7,3,13,0.06
2013-8-31,84.1,77.5,72.1,72.1,69.6,67.3,91,77,60,30.02,29.91,10,5,14,0.12
2013-9-1,82.6,77.6,73.6,71.5,68.4,64.6,81,73,64,30.00,29.91,8,4,22,0.01
2013-9-2,83.5,77.9,72.8,71.2,69.0,67.3,88,75,64,30.01,29.92,8,4,15,0.05
2013-9-3,82.9,77.6,72.2,71.2,68.8,66.4,83,75,62,30.00,29.92,7,3,15,0.00
2013-9-4,82.7,75.8,70.1,71.0,68.3,65.1,90,78,65,30.01,29.93,10,2,14,0.01
2013-9-5,84.4,77.4,71.1,71.2,67.6,64.8,83,72,58,30.07,29.96,8,2,12,0.00
2013-9-6,84.1,77.0,70.8,71.5,68.9,65.1,92,77,60,30.05,29.98,8,3,12,0.18
2013-9-7,84.1,78.0,72.8,74.9,72.2,69.9,93,83,70,30.02,29.92,9,4,15,0.28
2013-9-8,85.0,78.7,74.0,73.3,70.8,69.0,91,77,63,30.04,29.95,9,5,15,0.13
2013-9-9,84.4,78.6,74.3,71.8,69.6,67.3,82,74,61,30.06,29.96,8,4,15,0.00
2013-9-10,83.6,77.7,72.1,73.4,70.6,68.0,89,79,67,30.04,29.95,8,4,14,0.10
2013-9-11,83.7,77.7,74.2,74.2,71.3,69.0,87,81,69,30.06,29.95,8,3,13,0.03
2013-9-12,82.6,78.2,74.5,75.3,72.4,68.0,91,82,73,29.99,29.89,8,3,14,0.08
2013-9-13,84.6,78.6,73.8,73.6,71.1,68.6,90,78,65,29.92,29.83,8,4,17,0.06
2013-9-14,84.9,78.8,74.6,73.9,71.2,67.7,90,78,64,29.92,29.83,7,3,13,0.00
2013-9-15,84.8,79.0,73.7,72.7,70.5,69.0,90,76,64,29.96,29.86,9,4,14,0.01
2013-9-16,83.6,79.0,75.5,73.1,70.7,68.3,84,76,66,30.02,29.93,9,5,16,0.00
2013-9-17,82.7,76.9,72.2,73.7,71.1,68.9,93,82,73,30.00,29.92,8,5,17,0.43
2013-9-18,85.2,78.5,74.2,72.4,70.3,69.0,88,76,60,29.98,29.90,9,4,18,0.03
2013-9-19,84.7,78.7,75.1,72.2,70.0,68.4,84,75,62,30.02,29.91,8,5,12,0.00
2013-9-20,83.4,77.8,74.0,72.7,69.7,66.5,84,76,63,30.02,29.95,9,5,16,0.01
2013-9-21,83.4,77.3,72.0,72.3,69.0,66.6,87,76,67,30.00,29.91,9,5,19,0.07
2013-9-22,83.9,77.0,72.1,72.8,69.5,66.9,90,78,66,30.00,29.92,7,4,17,0.13
2013-9-23,84.6,77.7,72.4,72.8,69.9,67.8,90,77,66,29.99,29.90,8,4,14,0.01
2013-9-24,82.0,75.9,71.5,73.5,70.0,67.5,93,82,69,30.00,29.90,7,3,15,0.37
2013-9-25,83.0,76.3,71.2,74.0,69.8,66.6,93,81,65,30.02,29.92,7,3,13,0.19
2013-9-26,84.6,78.0,72.5,71.4,69.0,67.4,87,74,60,29.97,29.90,7,3,14,0.00
2013-9-27,83.8,78.4,74.5,71.9,69.6,67.6,82,75,63,30.05,29.92,10,5,14,0.00
2013-9-28,82.9,77.4,72.6,71.9,69.9,68.1,89,78,66,30.06,29.97,10,5,15,0.08
2013-9-29,82.6,77.5,73.6,71.9,69.2,66.7,83,76,65,30.03,29.91,7,4,14,0.00
2013-9-30,83.4,77.7,72.8,72.1,69.3,66.9,87,76,63,30.01,29.92,10,4,16,0.02
2013-10-1,84.1,78.4,74.3,72.5,70.2,66.2,85,76,66,29.98,29.89,10,5,20,0.00
2013-10-2,83.8,78.4,74.8,71.1,69.4,68.0,83,74,62,29.96,29.86,10,5,17,0.00
2013-10-3,83.7,78.1,75.3,71.0,68.6,65.5,78,73,61,29.95,29.87,9,5,18,0.00
2013-10-4,83.2,77.3,71.8,72.5,69.4,66.1,90,77,62,29.99,29.90,9,4,19,0.02
2013-10-5,82.5,76.2,71.3,70.9,68.8,67.2,91,78,64,29.98,29.89,9,4,20,0.19
2013-10-6,81.1,76.6,73.3,72.5,69.4,66.4,87,78,69,29.98,29.89,9,4,14,0.02
2013-10-7,82.4,77.8,74.8,71.3,69.4,67.2,85,76,65,30.03,29.92,9,5,16,0.01
2013-10-8,81.7,77.0,74.6,71.6,68.8,66.4,83,76,65,30.05,29.95,10,5,19,0.00
2013-10-9,81.7,76.9,73.0,71.9,69.2,67.7,86,77,68,30.02,29.92,8,5,16,0.04
2013-10-10,83.9,77.5,72.2,71.4,69.3,67.6,89,76,60,29.98,29.88,8,4,15,0.01
2013-10-11,84.7,78.2,71.7,74.1,70.8,67.3,87,78,66,30.00,29.89,5,1,12,0.00
2013-10-12,83.6,78.0,72.9,74.6,71.4,68.4,88,80,72,29.99,29.90,6,2,10,0.00
2013-10-13,84.1,77.8,72.4,73.5,70.6,68.3,90,79,65,29.97,29.88,6,2,12,0.00
2013-10-14,85.4,77.1,71.0,73.1,69.3,65.0,85,77,63,29.95,29.86,6,2,10,0.00
2013-10-15,82.9,76.7,71.1,72.9,69.3,66.0,85,78,65,29.96,29.86,6,2,13,0.00
2013-10-16,83.3,77.2,72.4,71.4,68.9,66.0,87,76,62,29.97,29.87,8,3,16,0.02
2013-10-17,84.4,76.7,70.2,73.8,69.5,65.3,85,79,66,29.97,29.88,7,1,8,0.00
2013-10-18,84.6,77.9,71.6,73.7,70.4,66.5,86,78,67,29.94,29.83,4,1,9,0.00
2013-10-19,85.1,77.6,71.2,72.8,69.7,66.5,86,77,58,29.89,29.80,6,2,12,0.00
2013-10-20,82.9,76.6,72.4,73.9,69.5,65.3,84,79,70,29.93,29.83,5,1,8,0.00
2013-10-21,80.6,76.1,72.1,69.6,67.6,65.9,84,75,61,29.96,29.87,7,2,9,0.00
2013-10-22,82.3,76.6,72.2,71.5,68.7,65.8,81,77,68,29.97,29.89,8,4,11,0.00
2013-10-23,83.5,77.3,73.0,71.8,68.8,66.8,88,76,58,29.99,29.89,7,3,13,0.04
2013-10-24,83.2,76.8,70.3,71.2,68.8,64.9,88,77,62,29.97,29.86,7,3,12,0.01
2013-10-25,84.4,77.8,70.9,72.6,69.2,64.4,85,75,57,29.98,29.88,7,2,14,0.00
2013-10-26,85.7,78.7,72.7,74.8,70.8,67.2,84,77,61,30.01,29.91,5,1,11,0.00
2013-10-27,84.5,78.2,73.3,74.4,71.1,67.4,86,79,68,30.01,29.91,7,2,11,0.00
2013-10-28,84.3,78.3,73.9,72.9,70.0,67.1,85,76,65,30.02,29.91,7,3,14,0.00
2013-10-29,82.5,77.3,74.2,71.3,69.1,67.6,83,76,66,30.04,29.94,7,3,15,0.02
2013-10-30,82.0,76.0,71.0,72.7,69.8,66.6,89,81,69,30.06,29.97,6,3,13,0.05
2013-10-31,83.6,77.7,73.3,72.2,69.4,66.0,83,76,62,30.07,29.99,7,4,13,0.00
2013-11-1,80.0,75.7,72.9,72.4,69.5,66.3,88,81,75,30.06,29.95,7,4,16,0.13
2013-11-2,81.0,76.6,73.6,71.1,68.6,67.0,84,76,67,30.05,29.95,9,6,16,0.00
2013-11-3,81.9,77.3,74.7,69.7,67.7,65.7,79,72,65,30.04,29.94,10,6,17,0.00
2013-11-4,81.6,75.9,73.2,70.9,68.7,66.8,87,78,68,30.01,29.91,8,4,13,0.11
2013-11-5,80.8,75.6,71.8,72.8,68.8,66.1,90,80,69,29.98,29.88,6,2,11,0.01
2013-11-6,82.5,76.3,71.3,71.0,68.5,65.8,89,77,63,29.96,29.84,6,2,11,0.01
2013-11-7,84.4,77.6,71.1,73.6,69.4,65.3,84,76,63,29.96,29.85,6,2,12,0.00
2013-11-8,83.3,77.6,74.0,72.9,69.7,67.3,86,77,66,29.96,29.83,8,3,12,0.00
2013-11-9,78.6,73.6,69.4,72.5,69.4,66.2,94,87,78,29.90,29.79,9,3,13,0.87
2013-11-10,76.4,71.9,67.9,70.6,67.2,64.4,94,85,71,29.96,29.82,13,6,15,0.50
2013-11-11,78.2,73.4,69.6,65.7,62.6,60.0,83,69,59,29.97,29.86,11,5,14,0.03
2013-11-12,77.7,72.9,68.5,64.5,61.9,59.1,76,69,60,29.98,29.88,7,3,11,0.00
2013-11-13,79.9,73.5,68.6,68.8,65.5,61.8,90,76,65,29.99,29.88,5,2,11,0.16
2013-11-14,77.0,72.7,68.1,72.5,68.9,65.7,94,88,82,29.99,29.88,5,2,9,0.60
2013-11-15,81.3,77.6,73.5,74.0,71.1,67.1,92,81,69,30.02,29.94,7,3,13,0.00
2013-11-16,80.7,76.8,73.2,71.9,69.4,67.0,84,78,70,30.02,29.92,7,3,11,0.00
2013-11-17,84.0,77.8,72.0,72.3,69.1,65.2,82,75,63,29.97,29.86,4,1,6,0.00
2013-11-18,81.1,75.5,70.0,71.6,67.8,64.3,88,77,68,29.95,29.85,5,1,9,0.00
2013-11-19,83.1,75.8,69.1,72.0,68.6,65.4,90,79,64,29.96,29.84,4,1,6,0.00
2013-11-20,82.4,75.6,69.9,72.6,68.4,63.1,86,78,68,29.97,29.87,3,0,5,0.00
2013-11-21,80.8,75.6,71.8,73.1,68.8,64.2,87,80,67,30.01,29.89,5,1,7,0.00
2013-11-22,79.4,75.1,69.7,71.7,69.2,66.0,89,82,76,30.01,29.92,7,3,11,0.00
2013-11-23,78.3,74.7,70.6,68.6,64.8,59.6,81,72,64,30.00,29.88,8,5,12,0.00
2013-11-24,79.4,73.4,68.6,66.2,62.4,58.0,77,69,56,29.98,29.86,7,3,15,0.00
2013-11-25,79.4,74.8,71.4,67.0,65.2,63.7,79,72,60,30.05,29.92,6,3,14,0.00
2013-11-26,77.7,75.2,73.8,69.1,67.0,64.6,81,76,71,30.07,29.96,7,4,13,0.00
2013-12-2,82.3,76.9,70.8,72.2,69.1,64.8,83,77,67,29.99,29.88,4,1,14,0.00
2013-12-3,81.9,75.0,69.2,69.6,66.6,62.7,85,75,63,29.97,29.83,6,2,7,0.00
2013-12-4,81.7,74.8,69.1,67.6,64.2,59.8,80,70,55,29.97,29.84,6,3,12,0.00
2013-12-5,81.9,74.9,69.0,70.1,66.4,63.1,87,75,58,29.99,29.87,4,1,6,0.00
2013-12-6,80.9,74.5,68.9,70.3,67.1,64.4,88,78,61,29.99,29.87,6,2,12,0.00
2013-12-7,80.9,74.8,69.3,71.6,67.0,62.6,84,77,66,29.96,29.86,5,1,9,0.00
2013-12-8,85.5,77.1,72.2,73.6,69.3,64.3,86,77,56,30.02,29.89,5,1,12,0.00
2013-12-9,82.9,77.1,72.3,73.9,71.3,67.6,87,83,72,30.06,29.94,6,2,11,0.00
2013-12-10,79.9,75.7,71.3,71.0,69.0,67.3,91,80,68,30.03,29.92,8,5,13,0.05
2013-12-11,79.8,74.8,71.6,70.2,67.3,63.1,92,78,66,30.01,29.92,8,4,16,0.02
2013-12-12,81.1,74.8,68.0,71.4,66.4,61.1,84,75,64,30.04,29.90,9,3,20,0.01
2013-12-13,82.0,75.5,72.6,71.1,67.3,65.4,83,76,67,30.04,29.92,7,4,14,0.00
2013-12-14,82.2,75.1,69.8,68.9,65.4,62.7,81,72,61,29.98,29.86,5,2,10,0.00
2013-12-15,79.3,72.4,67.4,68.2,64.9,61.9,86,78,62,29.95,29.81,6,0,9,0.00
2013-12-16,79.1,73.4,67.9,69.7,66.8,63.0,89,80,68,29.98,29.86,6,2,10,0.00
2013-12-17,78.6,73.2,69.3,68.5,65.7,62.9,86,78,68,30.01,29.92,7,3,11,0.00
2013-12-18,78.0,72.3,68.8,69.9,66.3,64.4,88,82,72,30.02,29.92,6,2,10,0.05
2013-12-19,79.1,72.9,67.1,70.4,66.6,64.3,93,81,68,30.03,29.93,9,4,17,1.70
2013-12-20,79.1,74.6,69.5,70.8,67.5,62.0,84,79,72,30.03,29.92,7,3,12,0.00
2013-12-21,80.3,74.0,69.7,70.6,67.7,64.7,88,81,70,29.99,29.90,6,2,9,0.01
2013-12-22,78.3,72.9,67.7,70.1,66.7,62.4,88,81,73,29.98,29.89,6,2,12,0.00
2013-12-24,78.9,75.5,72.9,69.9,67.6,65.6,80,77,71,30.04,29.94,8,5,15,0.09
2013-12-25,79.1,74.3,70.6,69.9,67.3,65.3,85,79,70,30.03,29.93,7,4,14,0.01
2013-12-26,78.1,74.5,70.4,68.8,67.2,64.8,86,78,69,30.00,29.88,8,5,13,0.00
2013-12-27,76.9,72.9,68.8,69.8,67.1,64.0,91,82,73,29.98,29.84,9,5,17,0.21
2013-12-28,76.6,73.0,69.4,71.7,69.4,66.3,93,88,83,29.95,29.81,11,4,18,0.47
2013-12-29,76.8,73.9,70.8,69.8,67.2,64.8,92,80,72,29.99,29.88,11,6,16,0.19
2013-12-30,75.6,72.5,68.4,67.5,65.5,64.0,89,79,69,29.99,29.90,7,4,13,0.00
2013-12-31,78.5,73.5,69.8,68.9,66.4,64.2,86,79,69,29.99,29.88,6,3,11,0.00
2014-1-1,79.4,73.0,67.6,71.2,67.2,62.7,88,82,71,29.94,29.83,5,1,6,0.00
2014-1-2,82.6,75.3,68.5,70.7,67.8,63.3,87,78,64,29.88,29.72,7,2,16,0.00